sensor_id;sensor_type;location;lat;lon;timestamp;temperature;humidity
75210;DHT22;63796;53.136;14.882;2023-12-20T00:01:30;7.90;99.90
75210;DHT22;63796;53.136;14.882;2023-12-20T00:03:58;7.90;99.90
75210;DHT22;63796;53.136;14.882;2023-12-20T00:06:26;8.00;99.90
75210;DHT22;63796;53.136;14.882;2023-12-20T00:08:53;8.00;99.90
75210;DHT22;63796;53.136;14.882;2023-12-20T00:11:21;8.00;99.90
75210;DHT22;63796;53.136;14.882;2023-12-20T00:13:48;7.90;99.90
75210;DHT22;63796;53.136;14.882;2023-12-20T00:16:17;7.90;99.90
75210;DHT22;63796;53.136;14.882;2023-12-20T00:18:45;7.90;99.90
75210;DHT22;63796;53.136;14.882;2023-12-20T00:21:13;7.90;99.90
75210;DHT22;63796;53.136;14.882;2023-12-20T00:23:41;7.90;99.90
75210;DHT22;63796;53.136;14.882;2023-12-20T00:26:08;7.90;99.90
75210;DHT22;63796;53.136;14.882;2023-12-20T00:28:36;7.80;99.90
75210;DHT22;63796;53.136;14.882;2023-12-20T00:31:03;7.90;99.90
75210;DHT22;63796;53.136;14.882;2023-12-20T00:33:32;7.90;99.90
75210;DHT22;63796;53.136;14.882;2023-12-20T00:35:59;7.90;99.90
75210;DHT22;63796;53.136;14.882;2023-12-20T00:38:28;7.90;99.90
75210;DHT22;63796;53.136;14.882;2023-12-20T00:40:55;7.90;99.90
75210;DHT22;63796;53.136;14.882;2023-12-20T00:43:23;7.90;99.90
75210;DHT22;63796;53.136;14.882;2023-12-20T00:45:50;7.90;99.90
75210;DHT22;63796;53.136;14.882;2023-12-20T00:48:18;7.90;99.90
75210;DHT22;63796;53.136;14.882;2023-12-20T00:50:45;7.90;99.90
75210;DHT22;63796;53.136;14.882;2023-12-20T00:53:13;7.90;99.90
75210;DHT22;63796;53.136;14.882;2023-12-20T00:55:40;7.90;99.90
75210;DHT22;63796;53.136;14.882;2023-12-20T00:58:08;8.00;99.90
75210;DHT22;63796;53.136;14.882;2023-12-20T01:00:35;8.00;99.90
75210;DHT22;63796;53.136;14.882;2023-12-20T01:03:03;8.00;99.90
75210;DHT22;63796;53.136;14.882;2023-12-20T01:05:31;7.90;99.90
75210;DHT22;63796;53.136;14.882;2023-12-20T01:07:59;7.90;99.90
75210;DHT22;63796;53.136;14.882;2023-12-20T01:10:27;7.90;99.90
75210;DHT22;63796;53.136;14.882;2023-12-20T01:12:55;7.90;99.90
75210;DHT22;63796;53.136;14.882;2023-12-20T01:15:23;7.80;99.90
75210;DHT22;63796;53.136;14.882;2023-12-20T01:17:51;7.90;99.90
75210;DHT22;63796;53.136;14.882;2023-12-20T01:20:18;7.80;99.90
75210;DHT22;63796;53.136;14.882;2023-12-20T01:22:47;7.70;99.90
75210;DHT22;63796;53.136;14.882;2023-12-20T01:25:14;7.70;99.90
75210;DHT22;63796;53.136;14.882;2023-12-20T01:27:42;7.70;99.90
75210;DHT22;63796;53.136;14.882;2023-12-20T01:30:10;7.80;99.90
75210;DHT22;63796;53.136;14.882;2023-12-20T01:32:38;7.70;99.90
75210;DHT22;63796;53.136;14.882;2023-12-20T01:35:06;7.80;99.90
75210;DHT22;63796;53.136;14.882;2023-12-20T01:37:34;7.80;99.90
75210;DHT22;63796;53.136;14.882;2023-12-20T01:40:01;7.80;99.90
75210;DHT22;63796;53.136;14.882;2023-12-20T01:42:30;7.70;99.90
75210;DHT22;63796;53.136;14.882;2023-12-20T01:44:57;7.80;99.90
75210;DHT22;63796;53.136;14.882;2023-12-20T01:47:25;7.80;99.90
75210;DHT22;63796;53.136;14.882;2023-12-20T01:49:54;7.80;99.90
75210;DHT22;63796;53.136;14.882;2023-12-20T01:52:24;7.80;99.90
75210;DHT22;63796;53.136;14.882;2023-12-20T01:54:54;7.70;99.90
75210;DHT22;63796;53.136;14.882;2023-12-20T01:57:28;7.60;99.90
75210;DHT22;63796;53.136;14.882;2023-12-20T01:59:55;7.60;99.90
75210;DHT22;63796;53.136;14.882;2023-12-20T02:02:23;7.50;99.90
75210;DHT22;63796;53.136;14.882;2023-12-20T02:04:53;7.50;99.90
75210;DHT22;63796;53.136;14.882;2023-12-20T02:07:21;7.50;99.90
75210;DHT22;63796;53.136;14.882;2023-12-20T02:09:50;7.40;99.90
75210;DHT22;63796;53.136;14.882;2023-12-20T02:12:17;7.50;99.90
75210;DHT22;63796;53.136;14.882;2023-12-20T02:14:46;7.50;99.90
75210;DHT22;63796;53.136;14.882;2023-12-20T02:17:13;7.50;99.90
75210;DHT22;63796;53.136;14.882;2023-12-20T02:19:41;7.40;99.90
75210;DHT22;63796;53.136;14.882;2023-12-20T02:22:10;7.40;99.90
75210;DHT22;63796;53.136;14.882;2023-12-20T02:24:39;7.40;99.90
75210;DHT22;63796;53.136;14.882;2023-12-20T02:27:07;7.30;99.90
75210;DHT22;63796;53.136;14.882;2023-12-20T02:29:35;7.30;99.90
75210;DHT22;63796;53.136;14.882;2023-12-20T02:32:03;7.40;99.90
75210;DHT22;63796;53.136;14.882;2023-12-20T02:34:30;7.40;99.90
75210;DHT22;63796;53.136;14.882;2023-12-20T02:36:58;7.40;99.90
75210;DHT22;63796;53.136;14.882;2023-12-20T02:39:25;7.40;99.90
75210;DHT22;63796;53.136;14.882;2023-12-20T02:41:53;7.40;99.90
75210;DHT22;63796;53.136;14.882;2023-12-20T02:44:21;7.30;99.90
75210;DHT22;63796;53.136;14.882;2023-12-20T02:46:48;7.30;99.90
75210;DHT22;63796;53.136;14.882;2023-12-20T02:49:16;7.20;99.90
75210;DHT22;63796;53.136;14.882;2023-12-20T02:51:44;7.20;99.90
75210;DHT22;63796;53.136;14.882;2023-12-20T02:54:12;7.20;99.90
75210;DHT22;63796;53.136;14.882;2023-12-20T02:56:39;7.10;99.90
75210;DHT22;63796;53.136;14.882;2023-12-20T02:59:07;7.10;99.90
75210;DHT22;63796;53.136;14.882;2023-12-20T03:01:35;7.10;99.90
75210;DHT22;63796;53.136;14.882;2023-12-20T03:04:09;7.10;99.90
75210;DHT22;63796;53.136;14.882;2023-12-20T03:06:37;7.10;99.90
75210;DHT22;63796;53.136;14.882;2023-12-20T03:09:05;7.10;99.90
75210;DHT22;63796;53.136;14.882;2023-12-20T03:11:33;7.10;99.90
75210;DHT22;63796;53.136;14.882;2023-12-20T03:14:00;7.20;99.90
75210;DHT22;63796;53.136;14.882;2023-12-20T03:16:28;7.10;99.90
75210;DHT22;63796;53.136;14.882;2023-12-20T03:18:56;7.10;99.90
75210;DHT22;63796;53.136;14.882;2023-12-20T03:21:23;7.20;99.90
75210;DHT22;63796;53.136;14.882;2023-12-20T03:23:51;7.20;99.90
75210;DHT22;63796;53.136;14.882;2023-12-20T03:26:19;7.10;99.90
75210;DHT22;63796;53.136;14.882;2023-12-20T03:28:46;7.00;99.90
75210;DHT22;63796;53.136;14.882;2023-12-20T03:31:13;7.00;99.90
75210;DHT22;63796;53.136;14.882;2023-12-20T03:33:41;6.90;99.90
75210;DHT22;63796;53.136;14.882;2023-12-20T03:36:09;6.90;99.90
75210;DHT22;63796;53.136;14.882;2023-12-20T03:38:36;6.90;99.90
75210;DHT22;63796;53.136;14.882;2023-12-20T03:41:04;6.80;99.90
75210;DHT22;63796;53.136;14.882;2023-12-20T03:43:31;6.90;99.90
75210;DHT22;63796;53.136;14.882;2023-12-20T03:45:59;7.00;99.90
75210;DHT22;63796;53.136;14.882;2023-12-20T03:48:27;7.00;99.90
75210;DHT22;63796;53.136;14.882;2023-12-20T03:50:56;7.00;99.90
75210;DHT22;63796;53.136;14.882;2023-12-20T03:53:24;7.10;99.90
75210;DHT22;63796;53.136;14.882;2023-12-20T03:55:51;7.20;99.90
75210;DHT22;63796;53.136;14.882;2023-12-20T03:58:19;7.20;99.90
75210;DHT22;63796;53.136;14.882;2023-12-20T04:00:48;7.20;99.90
75210;DHT22;63796;53.136;14.882;2023-12-20T04:03:15;7.20;99.90
75210;DHT22;63796;53.136;14.882;2023-12-20T04:05:43;7.10;99.90
75210;DHT22;63796;53.136;14.882;2023-12-20T04:08:10;7.00;99.90
75210;DHT22;63796;53.136;14.882;2023-12-20T04:10:38;7.00;99.90
75210;DHT22;63796;53.136;14.882;2023-12-20T04:13:06;7.10;99.90
75210;DHT22;63796;53.136;14.882;2023-12-20T04:15:33;7.10;99.90
75210;DHT22;63796;53.136;14.882;2023-12-20T04:18:01;7.00;99.90
75210;DHT22;63796;53.136;14.882;2023-12-20T04:20:29;7.00;99.90
75210;DHT22;63796;53.136;14.882;2023-12-20T04:22:56;7.00;99.90
75210;DHT22;63796;53.136;14.882;2023-12-20T04:25:25;7.00;99.90
75210;DHT22;63796;53.136;14.882;2023-12-20T04:27:52;7.00;99.90
75210;DHT22;63796;53.136;14.882;2023-12-20T04:30:20;7.00;99.90
75210;DHT22;63796;53.136;14.882;2023-12-20T04:32:48;6.90;99.90
75210;DHT22;63796;53.136;14.882;2023-12-20T04:35:15;6.90;99.90
75210;DHT22;63796;53.136;14.882;2023-12-20T04:37:44;6.90;99.90
75210;DHT22;63796;53.136;14.882;2023-12-20T04:40:11;6.90;99.90
75210;DHT22;63796;53.136;14.882;2023-12-20T04:42:39;6.80;99.90
75210;DHT22;63796;53.136;14.882;2023-12-20T04:45:07;6.80;99.90
75210;DHT22;63796;53.136;14.882;2023-12-20T04:47:35;6.70;99.90
75210;DHT22;63796;53.136;14.882;2023-12-20T04:50:03;6.70;99.90
75210;DHT22;63796;53.136;14.882;2023-12-20T04:52:31;6.70;99.90
75210;DHT22;63796;53.136;14.882;2023-12-20T04:54:59;6.80;99.90
75210;DHT22;63796;53.136;14.882;2023-12-20T04:57:26;6.70;99.90
75210;DHT22;63796;53.136;14.882;2023-12-20T04:59:54;6.70;99.90
75210;DHT22;63796;53.136;14.882;2023-12-20T05:02:21;6.70;99.90
75210;DHT22;63796;53.136;14.882;2023-12-20T05:04:49;6.60;99.90
75210;DHT22;63796;53.136;14.882;2023-12-20T05:07:20;6.60;99.90
75210;DHT22;63796;53.136;14.882;2023-12-20T05:09:47;6.50;99.90
75210;DHT22;63796;53.136;14.882;2023-12-20T05:12:15;6.50;99.90
75210;DHT22;63796;53.136;14.882;2023-12-20T05:14:43;6.50;99.90
75210;DHT22;63796;53.136;14.882;2023-12-20T05:17:11;6.40;99.90
75210;DHT22;63796;53.136;14.882;2023-12-20T05:19:39;6.40;99.90
75210;DHT22;63796;53.136;14.882;2023-12-20T05:22:06;6.30;99.90
75210;DHT22;63796;53.136;14.882;2023-12-20T05:24:34;6.30;99.90
75210;DHT22;63796;53.136;14.882;2023-12-20T05:27:01;6.20;99.90
75210;DHT22;63796;53.136;14.882;2023-12-20T05:29:29;6.20;99.90
75210;DHT22;63796;53.136;14.882;2023-12-20T05:31:57;6.20;99.90
75210;DHT22;63796;53.136;14.882;2023-12-20T05:34:25;6.20;99.90
75210;DHT22;63796;53.136;14.882;2023-12-20T05:36:52;6.20;99.90
75210;DHT22;63796;53.136;14.882;2023-12-20T05:39:20;6.10;99.90
75210;DHT22;63796;53.136;14.882;2023-12-20T05:41:48;6.10;99.90
75210;DHT22;63796;53.136;14.882;2023-12-20T05:44:15;6.20;99.90
75210;DHT22;63796;53.136;14.882;2023-12-20T05:46:43;6.20;99.90
75210;DHT22;63796;53.136;14.882;2023-12-20T05:49:10;6.30;99.90
75210;DHT22;63796;53.136;14.882;2023-12-20T05:51:38;6.40;99.90
75210;DHT22;63796;53.136;14.882;2023-12-20T05:54:06;6.50;99.90
75210;DHT22;63796;53.136;14.882;2023-12-20T05:56:33;6.50;99.90
75210;DHT22;63796;53.136;14.882;2023-12-20T05:59:00;6.60;99.90
75210;DHT22;63796;53.136;14.882;2023-12-20T06:01:28;6.50;99.90
75210;DHT22;63796;53.136;14.882;2023-12-20T06:03:55;6.60;99.90
75210;DHT22;63796;53.136;14.882;2023-12-20T06:06:23;6.50;99.90
75210;DHT22;63796;53.136;14.882;2023-12-20T06:08:51;6.60;99.90
75210;DHT22;63796;53.136;14.882;2023-12-20T06:11:18;6.60;99.90
75210;DHT22;63796;53.136;14.882;2023-12-20T06:13:46;6.60;99.90
75210;DHT22;63796;53.136;14.882;2023-12-20T06:16:14;6.50;99.90
75210;DHT22;63796;53.136;14.882;2023-12-20T06:18:42;6.40;99.90
75210;DHT22;63796;53.136;14.882;2023-12-20T06:21:09;6.30;99.90
75210;DHT22;63796;53.136;14.882;2023-12-20T06:23:40;6.20;99.90
75210;DHT22;63796;53.136;14.882;2023-12-20T06:26:07;6.10;99.90
75210;DHT22;63796;53.136;14.882;2023-12-20T06:28:35;6.20;99.90
75210;DHT22;63796;53.136;14.882;2023-12-20T06:31:06;6.20;99.90
75210;DHT22;63796;53.136;14.882;2023-12-20T06:33:33;6.20;99.90
75210;DHT22;63796;53.136;14.882;2023-12-20T06:36:01;6.10;99.90
75210;DHT22;63796;53.136;14.882;2023-12-20T06:38:29;6.20;99.90
75210;DHT22;63796;53.136;14.882;2023-12-20T06:40:56;6.30;99.90
75210;DHT22;63796;53.136;14.882;2023-12-20T06:43:25;6.30;99.90
75210;DHT22;63796;53.136;14.882;2023-12-20T06:46:12;6.30;99.90
75210;DHT22;63796;53.136;14.882;2023-12-20T06:48:40;6.30;99.90
75210;DHT22;63796;53.136;14.882;2023-12-20T06:51:12;6.30;99.90
75210;DHT22;63796;53.136;14.882;2023-12-20T06:53:42;6.20;99.90
75210;DHT22;63796;53.136;14.882;2023-12-20T06:56:10;6.20;99.90
75210;DHT22;63796;53.136;14.882;2023-12-20T06:58:41;6.30;99.90
75210;DHT22;63796;53.136;14.882;2023-12-20T07:01:15;6.30;99.90
75210;DHT22;63796;53.136;14.882;2023-12-20T07:03:43;6.30;99.90
75210;DHT22;63796;53.136;14.882;2023-12-20T07:06:11;6.30;99.90
75210;DHT22;63796;53.136;14.882;2023-12-20T07:08:39;6.30;99.90
75210;DHT22;63796;53.136;14.882;2023-12-20T07:11:07;6.20;99.90
75210;DHT22;63796;53.136;14.882;2023-12-20T07:13:35;6.20;99.90
75210;DHT22;63796;53.136;14.882;2023-12-20T07:16:03;6.10;99.90
75210;DHT22;63796;53.136;14.882;2023-12-20T07:18:31;6.10;99.90
75210;DHT22;63796;53.136;14.882;2023-12-20T07:20:58;6.20;99.90
75210;DHT22;63796;53.136;14.882;2023-12-20T07:23:26;6.10;99.90
75210;DHT22;63796;53.136;14.882;2023-12-20T07:25:53;6.20;99.90
75210;DHT22;63796;53.136;14.882;2023-12-20T07:28:21;6.20;99.90
75210;DHT22;63796;53.136;14.882;2023-12-20T07:30:48;6.20;99.90
75210;DHT22;63796;53.136;14.882;2023-12-20T07:33:16;6.20;99.90
75210;DHT22;63796;53.136;14.882;2023-12-20T07:35:44;6.20;99.90
75210;DHT22;63796;53.136;14.882;2023-12-20T07:38:12;6.20;99.90
75210;DHT22;63796;53.136;14.882;2023-12-20T07:40:40;6.20;99.90
75210;DHT22;63796;53.136;14.882;2023-12-20T07:43:07;6.30;99.90
75210;DHT22;63796;53.136;14.882;2023-12-20T07:45:35;6.30;99.90
75210;DHT22;63796;53.136;14.882;2023-12-20T07:48:02;6.30;99.90
75210;DHT22;63796;53.136;14.882;2023-12-20T07:50:30;6.30;99.90
75210;DHT22;63796;53.136;14.882;2023-12-20T07:52:58;6.30;99.90
75210;DHT22;63796;53.136;14.882;2023-12-20T07:55:28;6.30;99.90
75210;DHT22;63796;53.136;14.882;2023-12-20T07:57:55;6.30;99.90
75210;DHT22;63796;53.136;14.882;2023-12-20T08:00:23;6.30;99.90
75210;DHT22;63796;53.136;14.882;2023-12-20T08:02:50;6.40;99.90
75210;DHT22;63796;53.136;14.882;2023-12-20T08:05:18;6.40;99.90
75210;DHT22;63796;53.136;14.882;2023-12-20T08:07:46;6.40;99.90
75210;DHT22;63796;53.136;14.882;2023-12-20T08:10:13;6.50;99.90
75210;DHT22;63796;53.136;14.882;2023-12-20T08:12:41;6.40;99.90
75210;DHT22;63796;53.136;14.882;2023-12-20T08:15:08;6.40;99.90
75210;DHT22;63796;53.136;14.882;2023-12-20T08:17:36;6.40;99.90
75210;DHT22;63796;53.136;14.882;2023-12-20T08:20:04;6.40;99.90
75210;DHT22;63796;53.136;14.882;2023-12-20T08:22:32;6.40;99.90
75210;DHT22;63796;53.136;14.882;2023-12-20T08:24:59;6.50;99.90
75210;DHT22;63796;53.136;14.882;2023-12-20T08:27:27;6.40;99.90
75210;DHT22;63796;53.136;14.882;2023-12-20T08:29:55;6.40;99.90
75210;DHT22;63796;53.136;14.882;2023-12-20T08:32:25;6.40;99.90
75210;DHT22;63796;53.136;14.882;2023-12-20T08:34:53;6.40;99.90
75210;DHT22;63796;53.136;14.882;2023-12-20T08:37:21;6.50;99.90
75210;DHT22;63796;53.136;14.882;2023-12-20T08:39:49;6.40;99.90
75210;DHT22;63796;53.136;14.882;2023-12-20T08:42:16;6.40;99.90
75210;DHT22;63796;53.136;14.882;2023-12-20T08:44:44;6.40;99.90
75210;DHT22;63796;53.136;14.882;2023-12-20T08:47:11;6.30;99.90
75210;DHT22;63796;53.136;14.882;2023-12-20T08:49:40;6.30;99.90
75210;DHT22;63796;53.136;14.882;2023-12-20T08:52:07;6.30;99.90
75210;DHT22;63796;53.136;14.882;2023-12-20T08:54:35;6.40;99.90
75210;DHT22;63796;53.136;14.882;2023-12-20T08:57:02;6.40;99.90
75210;DHT22;63796;53.136;14.882;2023-12-20T08:59:31;6.40;99.90
75210;DHT22;63796;53.136;14.882;2023-12-20T09:01:58;6.40;99.90
75210;DHT22;63796;53.136;14.882;2023-12-20T09:04:25;6.40;99.90
75210;DHT22;63796;53.136;14.882;2023-12-20T09:06:53;6.40;99.90
75210;DHT22;63796;53.136;14.882;2023-12-20T09:09:21;6.40;99.90
75210;DHT22;63796;53.136;14.882;2023-12-20T09:11:48;6.40;99.90
75210;DHT22;63796;53.136;14.882;2023-12-20T09:14:18;6.40;99.90
75210;DHT22;63796;53.136;14.882;2023-12-20T09:16:45;6.40;99.90
75210;DHT22;63796;53.136;14.882;2023-12-20T09:19:13;6.40;99.90
75210;DHT22;63796;53.136;14.882;2023-12-20T09:21:40;6.40;99.90
75210;DHT22;63796;53.136;14.882;2023-12-20T09:24:08;6.50;99.90
75210;DHT22;63796;53.136;14.882;2023-12-20T09:26:36;6.50;99.90
75210;DHT22;63796;53.136;14.882;2023-12-20T09:29:03;6.50;99.90
75210;DHT22;63796;53.136;14.882;2023-12-20T09:31:30;6.40;99.90
75210;DHT22;63796;53.136;14.882;2023-12-20T09:33:58;6.40;99.90
75210;DHT22;63796;53.136;14.882;2023-12-20T09:36:25;6.40;99.90
75210;DHT22;63796;53.136;14.882;2023-12-20T09:38:54;6.50;99.90
75210;DHT22;63796;53.136;14.882;2023-12-20T09:41:22;6.50;99.90
75210;DHT22;63796;53.136;14.882;2023-12-20T09:43:51;6.60;99.90
75210;DHT22;63796;53.136;14.882;2023-12-20T09:46:21;6.50;99.90
75210;DHT22;63796;53.136;14.882;2023-12-20T09:48:51;6.60;99.90
75210;DHT22;63796;53.136;14.882;2023-12-20T09:51:20;6.60;99.90
75210;DHT22;63796;53.136;14.882;2023-12-20T09:53:48;6.60;99.90
75210;DHT22;63796;53.136;14.882;2023-12-20T09:56:16;6.70;99.90
75210;DHT22;63796;53.136;14.882;2023-12-20T09:58:43;6.70;99.90
75210;DHT22;63796;53.136;14.882;2023-12-20T10:01:11;6.80;99.90
75210;DHT22;63796;53.136;14.882;2023-12-20T10:03:39;6.80;99.90
75210;DHT22;63796;53.136;14.882;2023-12-20T10:06:08;6.80;99.90
75210;DHT22;63796;53.136;14.882;2023-12-20T10:08:37;6.70;99.90
75210;DHT22;63796;53.136;14.882;2023-12-20T10:11:05;6.70;99.90
75210;DHT22;63796;53.136;14.882;2023-12-20T10:13:33;6.80;99.90
75210;DHT22;63796;53.136;14.882;2023-12-20T10:16:01;6.80;99.90
75210;DHT22;63796;53.136;14.882;2023-12-20T10:18:29;6.80;99.90
75210;DHT22;63796;53.136;14.882;2023-12-20T10:21:05;6.80;99.90
75210;DHT22;63796;53.136;14.882;2023-12-20T10:23:34;6.80;99.90
75210;DHT22;63796;53.136;14.882;2023-12-20T10:26:01;6.80;99.90
75210;DHT22;63796;53.136;14.882;2023-12-20T10:28:32;7.00;99.90
75210;DHT22;63796;53.136;14.882;2023-12-20T10:31:02;7.00;99.90
75210;DHT22;63796;53.136;14.882;2023-12-20T10:33:30;7.10;99.90
75210;DHT22;63796;53.136;14.882;2023-12-20T10:36:00;7.10;99.90
75210;DHT22;63796;53.136;14.882;2023-12-20T10:38:27;7.10;99.90
75210;DHT22;63796;53.136;14.882;2023-12-20T10:40:57;7.20;99.90
75210;DHT22;63796;53.136;14.882;2023-12-20T10:43:29;7.30;99.90
75210;DHT22;63796;53.136;14.882;2023-12-20T10:45:59;7.20;99.90
75210;DHT22;63796;53.136;14.882;2023-12-20T10:48:26;7.40;99.90
75210;DHT22;63796;53.136;14.882;2023-12-20T10:50:57;7.60;99.90
75210;DHT22;63796;53.136;14.882;2023-12-20T10:53:25;7.80;99.90
75210;DHT22;63796;53.136;14.882;2023-12-20T10:55:55;7.80;99.90
75210;DHT22;63796;53.136;14.882;2023-12-20T10:58:24;7.70;99.90
75210;DHT22;63796;53.136;14.882;2023-12-20T11:00:55;7.60;99.90
75210;DHT22;63796;53.136;14.882;2023-12-20T11:03:34;7.60;99.90
75210;DHT22;63796;53.136;14.882;2023-12-20T11:06:10;7.70;99.90
75210;DHT22;63796;53.136;14.882;2023-12-20T11:14:00;7.70;99.90
75210;DHT22;63796;53.136;14.882;2023-12-20T11:16:32;7.70;99.90
75210;DHT22;63796;53.136;14.882;2023-12-20T11:19:14;8.00;99.90
75210;DHT22;63796;53.136;14.882;2023-12-20T11:21:42;8.20;99.90
75210;DHT22;63796;53.136;14.882;2023-12-20T11:24:10;8.00;99.90
75210;DHT22;63796;53.136;14.882;2023-12-20T11:26:37;7.80;99.90
75210;DHT22;63796;53.136;14.882;2023-12-20T11:29:32;7.70;99.90
75210;DHT22;63796;53.136;14.882;2023-12-20T11:34:51;7.50;99.90
75210;DHT22;63796;53.136;14.882;2023-12-20T11:37:20;7.40;99.90
75210;DHT22;63796;53.136;14.882;2023-12-20T11:39:55;7.40;99.90
75210;DHT22;63796;53.136;14.882;2023-12-20T11:42:23;7.40;99.90
75210;DHT22;63796;53.136;14.882;2023-12-20T11:44:51;7.30;99.90
75210;DHT22;63796;53.136;14.882;2023-12-20T11:47:18;7.30;99.90
75210;DHT22;63796;53.136;14.882;2023-12-20T11:49:47;7.40;99.90
75210;DHT22;63796;53.136;14.882;2023-12-20T11:52:16;7.50;99.90
75210;DHT22;63796;53.136;14.882;2023-12-20T11:54:44;7.40;99.90
75210;DHT22;63796;53.136;14.882;2023-12-20T11:57:11;7.20;99.90
75210;DHT22;63796;53.136;14.882;2023-12-20T11:59:39;7.30;99.90
75210;DHT22;63796;53.136;14.882;2023-12-20T12:02:06;7.40;99.90
75210;DHT22;63796;53.136;14.882;2023-12-20T12:04:34;7.40;99.90
75210;DHT22;63796;53.136;14.882;2023-12-20T12:07:02;7.60;99.90
75210;DHT22;63796;53.136;14.882;2023-12-20T12:09:30;7.50;99.90
75210;DHT22;63796;53.136;14.882;2023-12-20T12:11:57;7.50;99.90
75210;DHT22;63796;53.136;14.882;2023-12-20T12:14:25;7.50;99.90
75210;DHT22;63796;53.136;14.882;2023-12-20T12:16:54;7.50;99.90
75210;DHT22;63796;53.136;14.882;2023-12-20T12:19:22;7.50;99.90
75210;DHT22;63796;53.136;14.882;2023-12-20T12:21:51;7.70;99.90
75210;DHT22;63796;53.136;14.882;2023-12-20T12:24:31;7.70;99.90
75210;DHT22;63796;53.136;14.882;2023-12-20T12:26:59;7.80;99.90
75210;DHT22;63796;53.136;14.882;2023-12-20T12:29:27;7.80;99.90
75210;DHT22;63796;53.136;14.882;2023-12-20T12:31:55;7.70;99.90
75210;DHT22;63796;53.136;14.882;2023-12-20T12:34:23;7.50;99.90
75210;DHT22;63796;53.136;14.882;2023-12-20T12:36:51;7.60;99.90
75210;DHT22;63796;53.136;14.882;2023-12-20T12:39:18;7.50;99.90
75210;DHT22;63796;53.136;14.882;2023-12-20T12:41:46;7.50;99.90
75210;DHT22;63796;53.136;14.882;2023-12-20T12:44:14;7.40;99.90
75210;DHT22;63796;53.136;14.882;2023-12-20T12:46:45;7.30;99.90
75210;DHT22;63796;53.136;14.882;2023-12-20T12:49:13;7.30;99.90
75210;DHT22;63796;53.136;14.882;2023-12-20T12:51:40;7.40;99.90
75210;DHT22;63796;53.136;14.882;2023-12-20T12:54:08;7.00;99.90
75210;DHT22;63796;53.136;14.882;2023-12-20T12:56:36;6.90;99.90
75210;DHT22;63796;53.136;14.882;2023-12-20T12:59:04;6.90;99.90
75210;DHT22;63796;53.136;14.882;2023-12-20T13:01:32;6.60;99.90
75210;DHT22;63796;53.136;14.882;2023-12-20T13:04:00;6.50;99.90
75210;DHT22;63796;53.136;14.882;2023-12-20T13:06:30;6.40;99.90
75210;DHT22;63796;53.136;14.882;2023-12-20T13:08:57;6.30;99.90
75210;DHT22;63796;53.136;14.882;2023-12-20T13:11:25;6.30;99.90
75210;DHT22;63796;53.136;14.882;2023-12-20T13:13:52;6.40;99.90
75210;DHT22;63796;53.136;14.882;2023-12-20T13:16:20;6.40;99.90
75210;DHT22;63796;53.136;14.882;2023-12-20T13:18:47;6.50;99.90
75210;DHT22;63796;53.136;14.882;2023-12-20T13:21:15;6.40;99.90
75210;DHT22;63796;53.136;14.882;2023-12-20T13:23:43;6.50;99.90
75210;DHT22;63796;53.136;14.882;2023-12-20T13:26:11;6.60;99.90
75210;DHT22;63796;53.136;14.882;2023-12-20T13:28:38;6.60;99.90
75210;DHT22;63796;53.136;14.882;2023-12-20T13:31:05;6.60;99.90
75210;DHT22;63796;53.136;14.882;2023-12-20T13:33:33;6.60;99.90
75210;DHT22;63796;53.136;14.882;2023-12-20T13:36:01;6.60;99.90
75210;DHT22;63796;53.136;14.882;2023-12-20T13:38:32;6.70;99.90
75210;DHT22;63796;53.136;14.882;2023-12-20T13:41:00;6.60;99.90
75210;DHT22;63796;53.136;14.882;2023-12-20T13:43:27;6.70;99.90
75210;DHT22;63796;53.136;14.882;2023-12-20T13:45:56;6.70;99.90
75210;DHT22;63796;53.136;14.882;2023-12-20T13:48:23;6.80;99.90
75210;DHT22;63796;53.136;14.882;2023-12-20T13:50:51;6.70;99.90
75210;DHT22;63796;53.136;14.882;2023-12-20T13:53:18;6.70;99.90
75210;DHT22;63796;53.136;14.882;2023-12-20T13:55:46;6.80;99.90
75210;DHT22;63796;53.136;14.882;2023-12-20T13:58:13;6.80;99.90
75210;DHT22;63796;53.136;14.882;2023-12-20T14:00:41;6.70;99.90
75210;DHT22;63796;53.136;14.882;2023-12-20T14:03:08;6.70;99.90
75210;DHT22;63796;53.136;14.882;2023-12-20T14:05:36;6.70;99.90
75210;DHT22;63796;53.136;14.882;2023-12-20T14:08:04;6.60;99.90
75210;DHT22;63796;53.136;14.882;2023-12-20T14:10:32;6.60;99.90
75210;DHT22;63796;53.136;14.882;2023-12-20T14:12:59;6.70;99.90
75210;DHT22;63796;53.136;14.882;2023-12-20T14:15:27;6.70;99.90
75210;DHT22;63796;53.136;14.882;2023-12-20T14:17:55;6.70;99.90
75210;DHT22;63796;53.136;14.882;2023-12-20T14:20:23;6.70;99.90
75210;DHT22;63796;53.136;14.882;2023-12-20T14:22:50;6.60;99.90
75210;DHT22;63796;53.136;14.882;2023-12-20T14:25:18;6.60;99.90
75210;DHT22;63796;53.136;14.882;2023-12-20T14:27:45;6.60;99.90
75210;DHT22;63796;53.136;14.882;2023-12-20T14:30:13;6.70;99.90
75210;DHT22;63796;53.136;14.882;2023-12-20T14:32:42;6.60;99.90
75210;DHT22;63796;53.136;14.882;2023-12-20T14:35:09;6.70;99.90
75210;DHT22;63796;53.136;14.882;2023-12-20T14:37:37;6.60;99.90
75210;DHT22;63796;53.136;14.882;2023-12-20T14:40:06;6.60;99.90
75210;DHT22;63796;53.136;14.882;2023-12-20T14:42:38;6.50;99.90
75210;DHT22;63796;53.136;14.882;2023-12-20T14:45:05;6.40;99.90
75210;DHT22;63796;53.136;14.882;2023-12-20T14:47:34;6.40;99.90
75210;DHT22;63796;53.136;14.882;2023-12-20T14:50:03;6.40;99.90
75210;DHT22;63796;53.136;14.882;2023-12-20T14:52:32;6.30;99.90
75210;DHT22;63796;53.136;14.882;2023-12-20T14:55:01;6.30;99.90
75210;DHT22;63796;53.136;14.882;2023-12-20T14:57:32;6.20;99.90
75210;DHT22;63796;53.136;14.882;2023-12-20T14:59:59;6.10;99.90
75210;DHT22;63796;53.136;14.882;2023-12-20T15:02:26;6.10;99.90
75210;DHT22;63796;53.136;14.882;2023-12-20T15:04:54;6.00;99.90
75210;DHT22;63796;53.136;14.882;2023-12-20T15:07:21;6.00;99.90
75210;DHT22;63796;53.136;14.882;2023-12-20T15:09:48;6.00;99.90
75210;DHT22;63796;53.136;14.882;2023-12-20T15:12:16;6.00;99.90
75210;DHT22;63796;53.136;14.882;2023-12-20T15:14:43;6.00;99.90
75210;DHT22;63796;53.136;14.882;2023-12-20T15:17:11;6.00;99.90
75210;DHT22;63796;53.136;14.882;2023-12-20T15:19:39;6.00;99.90
75210;DHT22;63796;53.136;14.882;2023-12-20T15:22:06;6.10;99.90
75210;DHT22;63796;53.136;14.882;2023-12-20T15:24:36;6.10;99.90
75210;DHT22;63796;53.136;14.882;2023-12-20T15:27:09;6.10;99.90
75210;DHT22;63796;53.136;14.882;2023-12-20T15:29:37;6.10;99.90
75210;DHT22;63796;53.136;14.882;2023-12-20T15:32:04;6.20;99.90
75210;DHT22;63796;53.136;14.882;2023-12-20T15:34:32;6.30;99.90
75210;DHT22;63796;53.136;14.882;2023-12-20T15:37:00;6.30;99.90
75210;DHT22;63796;53.136;14.882;2023-12-20T15:39:27;6.20;99.90
75210;DHT22;63796;53.136;14.882;2023-12-20T15:41:55;6.10;99.90
75210;DHT22;63796;53.136;14.882;2023-12-20T15:44:22;5.90;99.90